Time;durP1;ratioP1;P1;durP2;ratioP2;P2;SDS_P1;SDS_P2;PMS_P1;PMS_P2;Temp;Humidity;BMP_temperature;BMP_pressure;BME280_temperature;BME280_humidity;BME280_pressure;Samples;Min_cycle;Max_cycle;Signal;HPM_P1;HPM_P2
2021/05/09 00:00:46;;;;;;;3.77;2.73;;;6.90;99.90;;;;;;2072414;28;20196;-68
2021/05/09 00:01:46;;;;;;;3.37;2.43;;;6.90;99.90;;;;;;2072122;28;20213;-68
2021/05/09 00:02:47;;;;;;;3.20;2.50;;;6.90;99.90;;;;;;2072587;28;20787;-68
2021/05/09 00:03:48;;;;;;;3.27;2.60;;;6.90;99.90;;;;;;2072506;28;20222;-68
2021/05/09 00:04:49;;;;;;;3.40;2.63;;;6.80;99.90;;;;;;2072497;28;20182;-68
2021/05/09 00:05:51;;;;;;;3.13;2.50;;;6.80;99.90;;;;;;2072334;28;20209;-68
2021/05/09 00:06:53;;;;;;;3.25;2.53;;;6.80;99.90;;;;;;2072400;28;20243;-68
2021/05/09 00:07:54;;;;;;;5.28;3.00;;;6.70;99.90;;;;;;2071734;28;20599;-68
2021/05/09 00:08:55;;;;;;;3.70;2.43;;;6.70;99.90;;;;;;2071935;28;20181;-68
2021/05/09 00:09:56;;;;;;;3.70;3.00;;;6.70;99.90;;;;;;2072540;28;20341;-68
2021/05/09 00:10:57;;;;;;;4.20;2.97;;;6.60;99.90;;;;;;2072598;28;20308;-68
2021/05/09 00:11:57;;;;;;;4.07;2.57;;;6.60;99.90;;;;;;2072141;28;20181;-68
2021/05/09 00:12:58;;;;;;;3.30;2.50;;;6.60;99.90;;;;;;2072437;28;20239;-68
2021/05/09 00:13:59;;;;;;;3.93;2.90;;;6.60;99.90;;;;;;2072565;28;20648;-68
2021/05/09 00:14:59;;;;;;;4.60;2.50;;;6.60;99.90;;;;;;2073362;28;20184;-68
2021/05/09 00:16:00;;;;;;;4.17;3.10;;;6.60;99.90;;;;;;2072527;28;20271;-68
2021/05/09 00:17:01;;;;;;;4.57;2.90;;;6.50;99.90;;;;;;2071980;28;20204;-68
2021/05/09 00:18:03;;;;;;;3.80;2.70;;;6.50;99.90;;;;;;2072027;28;20289;-67
2021/05/09 00:19:05;;;;;;;5.18;2.83;;;6.50;99.90;;;;;;2072788;28;20581;-68
2021/05/09 00:20:08;;;;;;;3.20;2.85;;;6.50;99.90;;;;;;2071902;28;20200;-68
2021/05/09 00:21:09;;;;;;;4.38;3.00;;;6.50;99.90;;;;;;2071853;28;20273;-67
2021/05/09 00:22:10;;;;;;;2.50;2.30;;;6.50;99.90;;;;;;2072191;28;20308;-68
2021/05/09 00:23:11;;;;;;;3.40;2.70;;;6.40;99.90;;;;;;2072640;28;20208;-68
2021/05/09 00:24:12;;;;;;;5.28;2.67;;;6.50;99.90;;;;;;2073290;28;20184;-68
2021/05/09 00:25:14;;;;;;;6.07;2.70;;;6.50;99.90;;;;;;2074050;28;20555;-69
2021/05/09 00:26:14;;;;;;;3.65;2.60;;;6.50;99.90;;;;;;2073350;28;20192;-68
2021/05/09 00:27:15;;;;;;;3.07;2.33;;;6.50;99.90;;;;;;2065266;28;20199;-69
2021/05/09 00:28:16;;;;;;;4.23;2.67;;;6.50;99.90;;;;;;2073197;28;20680;-68
2021/05/09 00:29:16;;;;;;;2.30;2.07;;;6.50;99.90;;;;;;2073970;28;20226;-68
2021/05/09 00:30:19;;;;;;;3.23;2.40;;;6.50;99.90;;;;;;2073871;28;20217;-68
2021/05/09 00:31:20;;;;;;;3.95;2.40;;;6.40;99.90;;;;;;2073803;28;20200;-69
2021/05/09 00:32:20;;;;;;;3.00;2.30;;;6.40;99.90;;;;;;2073317;28;20189;-68
2021/05/09 00:33:21;;;;;;;3.53;2.27;;;6.40;99.90;;;;;;2073280;28;20192;-68
2021/05/09 00:34:22;;;;;;;3.80;2.30;;;6.40;99.90;;;;;;2073342;28;20261;-65
2021/05/09 00:35:22;;;;;;;3.77;2.43;;;6.40;99.90;;;;;;2065132;28;20714;-65
2021/05/09 00:36:26;;;;;;;2.70;2.10;;;6.40;99.90;;;;;;2065204;28;20215;-68
2021/05/09 00:37:27;;;;;;;3.92;2.55;;;6.40;99.90;;;;;;2073162;28;20207;-68
2021/05/09 00:38:27;;;;;;;4.07;2.97;;;6.40;99.90;;;;;;2073881;28;20182;-68
2021/05/09 00:39:28;;;;;;;3.23;2.60;;;6.40;99.90;;;;;;2073713;28;20645;-69
2021/05/09 00:40:29;;;;;;;3.60;2.40;;;6.40;99.90;;;;;;2073920;28;20185;-68
2021/05/09 00:41:29;;;;;;;3.93;2.33;;;6.40;99.90;;;;;;2073602;28;20189;-69
2021/05/09 00:42:30;;;;;;;3.60;2.43;;;6.50;99.90;;;;;;2073979;28;20189;-68
2021/05/09 00:43:31;;;;;;;3.63;2.40;;;6.50;99.90;;;;;;2073909;28;20547;-68
2021/05/09 00:44:33;;;;;;;4.77;2.50;;;6.50;99.90;;;;;;2074055;28;20275;-68
2021/05/09 00:45:34;;;;;;;3.70;2.30;;;6.40;99.90;;;;;;2073226;28;20567;-68
2021/05/09 00:46:35;;;;;;;3.70;2.60;;;6.50;99.90;;;;;;2073197;28;20211;-67
2021/05/09 00:47:35;;;;;;;3.58;2.65;;;6.50;99.90;;;;;;2074057;28;20193;-67
2021/05/09 00:48:36;;;;;;;3.53;2.17;;;6.50;99.90;;;;;;2087107;23;20222;-70
2021/05/09 00:49:38;;;;;;;2.70;2.30;;;6.50;99.90;;;;;;2064759;28;20178;-69
2021/05/09 00:50:39;;;;;;;3.00;2.60;;;6.40;99.90;;;;;;2073387;28;20258;-69
2021/05/09 00:51:42;;;;;;;3.43;2.33;;;6.40;99.90;;;;;;2073749;28;20639;-68
2021/05/09 00:52:46;;;;;;;2.83;2.40;;;6.40;99.90;;;;;;2073866;28;20173;-70
2021/05/09 00:53:48;;;;;;;3.85;2.58;;;6.40;99.90;;;;;;2073358;28;20185;-68
2021/05/09 00:54:53;;;;;;;3.33;2.22;;;6.40;99.90;;;;;;2073279;28;20260;-68
2021/05/09 00:55:57;;;;;;;3.85;2.63;;;6.40;99.90;;;;;;2065646;28;20715;-68
2021/05/09 00:56:58;;;;;;;2.90;2.60;;;6.40;99.90;;;;;;2065185;28;20644;-67
2021/05/09 00:58:00;;;;;;;4.57;2.28;;;6.50;99.90;;;;;;2073044;28;20182;-68
2021/05/09 00:59:01;;;;;;;3.53;2.63;;;6.40;99.90;;;;;;2065241;28;20252;-68
2021/05/09 01:00:10;;;;;;;3.55;2.20;;;6.40;99.90;;;;;;2073421;28;20178;-69
2021/05/09 01:01:12;;;;;;;4.68;2.58;;;6.30;99.90;;;;;;2073714;28;20295;-68
2021/05/09 01:02:13;;;;;;;3.47;2.60;;;6.30;99.90;;;;;;2073841;28;20205;-68
2021/05/09 01:03:15;;;;;;;2.67;2.20;;;6.30;99.90;;;;;;2073836;28;20185;-68
2021/05/09 01:04:16;;;;;;;2.58;2.30;;;6.40;99.90;;;;;;2073248;28;20176;-68
2021/05/09 01:05:17;;;;;;;3.50;2.30;;;6.40;99.90;;;;;;2073354;28;20193;-68
2021/05/09 01:06:19;;;;;;;2.30;2.07;;;6.40;99.90;;;;;;2073759;28;20188;-68
2021/05/09 01:07:20;;;;;;;2.17;1.98;;;6.50;99.90;;;;;;2073756;28;20664;-69
2021/05/09 01:08:22;;;;;;;3.55;2.22;;;6.40;99.90;;;;;;2073778;28;20180;-69
2021/05/09 01:09:23;;;;;;;3.83;2.45;;;6.40;99.90;;;;;;2073852;28;20196;-69
2021/05/09 01:10:24;;;;;;;4.40;2.42;;;6.40;99.90;;;;;;2073758;28;20790;-69
2021/05/09 01:11:25;;;;;;;5.40;2.40;;;6.40;99.90;;;;;;2073392;28;20187;-69
2021/05/09 01:12:26;;;;;;;3.53;2.30;;;6.40;99.90;;;;;;2073926;28;20195;-68
2021/05/09 01:13:27;;;;;;;2.60;2.15;;;6.40;99.90;;;;;;2073826;28;20668;-69
2021/05/09 01:14:28;;;;;;;3.17;2.50;;;6.40;99.90;;;;;;2073871;28;20211;-68
2021/05/09 01:15:29;;;;;;;3.80;2.13;;;6.40;99.90;;;;;;2073853;28;20190;-68
2021/05/09 01:16:30;;;;;;;5.20;2.38;;;6.40;99.90;;;;;;2073617;28;20177;-68
2021/05/09 01:17:31;;;;;;;2.80;2.20;;;6.50;99.90;;;;;;2073154;28;20212;-69
2021/05/09 01:18:31;;;;;;;3.17;2.23;;;6.40;99.90;;;;;;2073122;28;20185;-68
2021/05/09 01:19:33;;;;;;;2.40;2.10;;;6.40;99.90;;;;;;2073028;28;20440;-68
2021/05/09 01:20:36;;;;;;;4.82;2.20;;;6.40;99.90;;;;;;2073195;28;20190;-68
2021/05/09 01:21:37;;;;;;;3.40;2.33;;;6.30;99.90;;;;;;2073340;28;20192;-69
2021/05/09 01:22:38;;;;;;;3.15;2.15;;;6.40;99.90;;;;;;2073668;28;20316;-69
2021/05/09 01:23:39;;;;;;;2.90;2.50;;;6.40;99.90;;;;;;2073879;28;20234;-68
2021/05/09 01:24:40;;;;;;;2.60;2.40;;;6.40;99.90;;;;;;2073577;28;20584;-68
2021/05/09 01:25:41;;;;;;;3.60;2.50;;;6.40;99.90;;;;;;2073698;28;20200;-68
2021/05/09 01:26:42;;;;;;;4.30;2.08;;;6.40;99.90;;;;;;2072961;28;20178;-68
2021/05/09 01:27:42;;;;;;;4.63;2.30;;;6.40;99.90;;;;;;2072997;28;20233;-69
2021/05/09 01:28:45;;;;;;;3.57;2.20;;;6.40;99.90;;;;;;2073568;28;20726;-69
2021/05/09 01:29:46;;;;;;;3.35;2.25;;;6.40;99.90;;;;;;2073815;28;20626;-68
2021/05/09 01:30:47;;;;;;;2.83;2.33;;;6.40;99.90;;;;;;2073602;28;20215;-69
2021/05/09 01:31:51;;;;;;;2.50;2.30;;;6.40;99.90;;;;;;2073499;28;20172;-69
2021/05/09 01:32:52;;;;;;;3.10;2.10;;;6.40;99.90;;;;;;2073324;28;20556;-68
2021/05/09 01:33:53;;;;;;;4.47;2.37;;;6.40;99.90;;;;;;2073749;28;20181;-69
2021/05/09 01:34:53;;;;;;;3.43;2.07;;;6.40;99.90;;;;;;2072641;28;20412;-68
2021/05/09 01:35:54;;;;;;;3.30;2.27;;;6.50;99.90;;;;;;2073928;28;20554;-68
2021/05/09 01:36:55;;;;;;;3.33;2.27;;;6.50;99.90;;;;;;2072926;28;20172;-68
2021/05/09 01:37:56;;;;;;;4.93;2.33;;;6.50;99.90;;;;;;2072924;28;20615;-69
2021/05/09 01:38:57;;;;;;;2.88;2.20;;;6.50;99.90;;;;;;2073447;28;20192;-68
2021/05/09 01:39:57;;;;;;;2.30;2.10;;;6.50;99.90;;;;;;2073604;28;20173;-69
2021/05/09 01:40:58;;;;;;;4.77;2.47;;;6.60;99.90;;;;;;2073500;28;20184;-69
2021/05/09 01:42:01;;;;;;;3.47;2.20;;;6.50;99.90;;;;;;2073222;28;20201;-69
2021/05/09 01:43:02;;;;;;;4.80;2.08;;;6.50;99.90;;;;;;2073395;28;20715;-69
2021/05/09 01:44:03;;;;;;;3.10;2.30;;;6.60;99.90;;;;;;2073553;28;20177;-69
2021/05/09 01:45:05;;;;;;;3.50;2.13;;;6.60;99.90;;;;;;2073532;28;20181;-68
2021/05/09 01:46:06;;;;;;;2.90;1.98;;;6.60;99.90;;;;;;2069343;28;20193;-68
2021/05/09 01:47:06;;;;;;;2.30;2.10;;;6.60;99.90;;;;;;2065541;28;20280;-68
2021/05/09 01:48:07;;;;;;;4.30;2.50;;;6.70;99.90;;;;;;2065242;28;20174;-69
2021/05/09 01:49:08;;;;;;;4.20;2.30;;;6.80;99.90;;;;;;2065236;28;20591;-69
2021/05/09 01:50:16;;;;;;;2.97;2.17;;;6.80;99.90;;;;;;2065456;28;20675;-69
2021/05/09 01:51:17;;;;;;;3.25;2.50;;;6.80;99.90;;;;;;2064502;28;20261;-68
2021/05/09 01:52:19;;;;;;;2.33;2.13;;;6.80;99.90;;;;;;2064652;28;20213;-69
2021/05/09 01:53:20;;;;;;;3.13;2.50;;;6.80;99.90;;;;;;2064978;28;20200;-69
2021/05/09 01:54:21;;;;;;;2.80;2.07;;;6.80;99.90;;;;;;2065343;28;20190;-69
2021/05/09 01:55:24;;;;;;;2.40;2.13;;;6.80;99.90;;;;;;2065335;28;20887;-68
2021/05/09 01:56:25;;;;;;;3.58;2.08;;;6.80;99.90;;;;;;2065444;28;20212;-69
2021/05/09 01:57:25;;;;;;;2.87;2.40;;;6.80;99.90;;;;;;2065333;28;20197;-69
2021/05/09 01:58:26;;;;;;;3.03;2.20;;;6.80;99.90;;;;;;2065383;28;20186;-68
2021/05/09 01:59:26;;;;;;;3.33;2.23;;;6.80;99.90;;;;;;2065066;28;20193;-69
2021/05/09 02:00:27;;;;;;;3.00;1.97;;;6.80;99.90;;;;;;2065397;28;20179;-69
2021/05/09 02:01:28;;;;;;;2.57;2.33;;;6.80;99.90;;;;;;2065067;28;20211;-68
2021/05/09 02:02:29;;;;;;;2.23;1.93;;;6.80;99.90;;;;;;2065425;28;20218;-68
2021/05/09 02:03:29;;;;;;;2.43;2.20;;;6.90;99.90;;;;;;2065305;28;20272;-68
2021/05/09 02:04:30;;;;;;;2.97;2.20;;;7.00;99.90;;;;;;2065116;28;20170;-68
2021/05/09 02:05:31;;;;;;;2.83;2.50;;;7.00;99.90;;;;;;2065282;28;20225;-70
2021/05/09 02:06:31;;;;;;;3.20;1.90;;;7.10;99.90;;;;;;2065351;28;20181;-70
2021/05/09 02:07:33;;;;;;;1.90;1.80;;;7.10;99.90;;;;;;2065335;28;20182;-68
2021/05/09 02:08:33;;;;;;;2.20;2.00;;;7.20;99.90;;;;;;2064776;28;20182;-69
2021/05/09 02:09:34;;;;;;;2.37;2.17;;;7.20;99.90;;;;;;2064745;28;20818;-67
2021/05/09 02:10:35;;;;;;;2.80;2.03;;;7.30;99.90;;;;;;2065219;28;20185;-69
2021/05/09 02:11:35;;;;;;;2.20;1.93;;;7.30;99.90;;;;;;2063598;28;20720;-69
2021/05/09 02:12:37;;;;;;;2.43;2.00;;;7.30;99.90;;;;;;2065104;28;20182;-68
2021/05/09 02:13:38;;;;;;;2.20;2.00;;;7.30;99.90;;;;;;2064999;28;20642;-68
2021/05/09 02:14:39;;;;;;;4.73;1.80;;;7.30;99.90;;;;;;2065125;28;20214;-68
2021/05/09 02:15:39;;;;;;;2.57;1.70;;;7.30;99.90;;;;;;2064958;28;20182;-69
2021/05/09 02:16:40;;;;;;;2.27;1.63;;;7.40;99.90;;;;;;2065259;28;20564;-68
2021/05/09 02:17:43;;;;;;;2.30;1.87;;;7.40;99.90;;;;;;2065161;28;20233;-68
2021/05/09 02:18:43;;;;;;;2.08;1.70;;;7.50;99.90;;;;;;2065145;28;20566;-69
2021/05/09 02:19:46;;;;;;;3.20;1.90;;;7.50;99.90;;;;;;2065269;28;20196;-68
2021/05/09 02:20:47;;;;;;;3.45;1.80;;;7.50;99.90;;;;;;2064444;28;20175;-68
2021/05/09 02:21:47;;;;;;;3.80;1.90;;;7.60;99.90;;;;;;2064263;28;20569;-68
2021/05/09 02:22:49;;;;;;;1.80;1.50;;;7.60;99.90;;;;;;2065158;28;20186;-68
2021/05/09 02:23:49;;;;;;;2.78;1.88;;;7.80;99.90;;;;;;2064537;28;20216;-68
2021/05/09 02:24:50;;;;;;;2.07;1.70;;;7.80;99.90;;;;;;2064570;28;20713;-68
2021/05/09 02:25:51;;;;;;;1.63;1.50;;;7.90;99.90;;;;;;2064290;28;20254;-68
2021/05/09 02:26:51;;;;;;;1.90;1.60;;;7.80;99.90;;;;;;2056435;28;20264;-69
2021/05/09 02:27:53;;;;;;;2.70;1.53;;;7.90;99.90;;;;;;2064303;28;20174;-68
2021/05/09 02:28:54;;;;;;;2.03;1.60;;;7.90;99.90;;;;;;2064994;28;20201;-68
2021/05/09 02:29:55;;;;;;;2.23;1.70;;;7.90;99.90;;;;;;2064997;28;20185;-69
2021/05/09 02:30:55;;;;;;;2.43;1.90;;;8.00;99.90;;;;;;2065101;28;20229;-69
2021/05/09 02:31:56;;;;;;;3.73;1.63;;;8.00;99.90;;;;;;2064731;28;20213;-68
2021/05/09 02:32:57;;;;;;;2.73;2.00;;;8.00;99.90;;;;;;2065122;28;20198;-69
2021/05/09 02:33:58;;;;;;;1.50;1.40;;;8.00;99.90;;;;;;2065173;28;20685;-69
2021/05/09 02:34:59;;;;;;;2.43;1.70;;;8.00;99.90;;;;;;2065098;28;20197;-68
2021/05/09 02:35:59;;;;;;;3.50;1.90;;;8.00;99.90;;;;;;2064536;28;20235;-69
2021/05/09 02:37:02;;;;;;;2.47;1.80;;;8.00;99.90;;;;;;2064319;28;20944;-69
2021/05/09 02:38:03;;;;;;;2.35;1.80;;;8.00;99.90;;;;;;2064991;28;20281;-69
2021/05/09 02:39:04;;;;;;;2.10;1.50;;;8.00;99.90;;;;;;2064978;28;20213;-69
2021/05/09 02:40:06;;;;;;;1.63;1.53;;;8.00;99.90;;;;;;2065056;28;20183;-69
2021/05/09 02:41:07;;;;;;;2.60;2.00;;;8.00;99.90;;;;;;2064209;28;20704;-69
2021/05/09 02:42:07;;;;;;;1.67;1.57;;;8.00;99.90;;;;;;2064326;28;20210;-69
2021/05/09 02:43:08;;;;;;;2.63;1.70;;;8.10;99.90;;;;;;2064955;28;20237;-68
2021/05/09 02:44:10;;;;;;;2.13;1.93;;;8.10;99.90;;;;;;2065094;28;20265;-69
2021/05/09 02:45:11;;;;;;;4.68;1.73;;;8.10;99.90;;;;;;2064909;28;20178;-69
2021/05/09 02:46:12;;;;;;;2.08;1.70;;;8.10;99.90;;;;;;2064166;28;20276;-69
2021/05/09 02:47:27;;;;;;;1.65;1.50;;;8.10;99.90;;;;;;2064412;28;20182;-70
2021/05/09 02:48:30;;;;;;;2.53;1.67;;;8.00;99.90;;;;;;2064413;28;20166;-69
2021/05/09 02:49:31;;;;;;;2.47;1.80;;;8.10;99.90;;;;;;2064613;28;20177;-69
2021/05/09 02:50:31;;;;;;;4.93;1.83;;;8.10;99.90;;;;;;2065056;28;20186;-69
2021/05/09 02:51:32;;;;;;;1.80;1.60;;;8.10;99.90;;;;;;2064681;28;20680;-70
2021/05/09 02:52:33;;;;;;;1.77;1.40;;;8.00;99.90;;;;;;2064961;28;20218;-69
2021/05/09 02:53:34;;;;;;;1.67;1.57;;;8.10;99.90;;;;;;2064747;28;20430;-70
2021/05/09 02:54:34;;;;;;;2.73;1.70;;;8.10;99.90;;;;;;2064945;28;20183;-69
2021/05/09 02:55:35;;;;;;;1.70;1.60;;;8.10;99.90;;;;;;2064957;28;20179;-70
2021/05/09 02:56:36;;;;;;;4.23;1.70;;;8.10;99.90;;;;;;2064980;28;20679;-69
2021/05/09 02:57:36;;;;;;;2.27;1.73;;;8.10;99.90;;;;;;2064850;28;20262;-69
2021/05/09 02:58:37;;;;;;;1.93;1.50;;;8.10;99.90;;;;;;2064655;28;20229;-69
2021/05/09 02:59:38;;;;;;;1.67;1.57;;;8.10;99.90;;;;;;2064793;28;20552;-69
2021/05/09 03:00:38;;;;;;;1.80;1.40;;;8.10;99.90;;;;;;2064900;28;20179;-70
2021/05/09 03:01:39;;;;;;;1.67;1.50;;;8.10;99.90;;;;;;2064481;28;20197;-68
2021/05/09 03:02:40;;;;;;;2.53;1.40;;;8.10;99.90;;;;;;2064924;28;20189;-69
2021/05/09 03:03:40;;;;;;;3.17;1.70;;;8.10;99.90;;;;;;2064671;28;20654;-69
2021/05/09 03:04:41;;;;;;;1.60;1.50;;;8.10;99.90;;;;;;2064905;28;20227;-69
2021/05/09 03:05:42;;;;;;;1.90;1.40;;;8.10;99.90;;;;;;2064803;28;20178;-69
2021/05/09 03:06:42;;;;;;;2.07;1.50;;;8.10;99.90;;;;;;2064912;28;20218;-70
2021/05/09 03:07:43;;;;;;;1.70;1.40;;;8.20;99.90;;;;;;2064687;28;20208;-69
2021/05/09 03:08:44;;;;;;;3.40;1.70;;;8.20;99.90;;;;;;2064826;28;20277;-70
2021/05/09 03:09:44;;;;;;;2.30;1.50;;;8.20;99.90;;;;;;2064639;28;20273;-70
2021/05/09 03:10:45;;;;;;;1.60;1.30;;;8.20;99.90;;;;;;2064912;28;20233;-68
2021/05/09 03:11:46;;;;;;;1.50;1.40;;;8.20;99.90;;;;;;2064470;28;20257;-69
2021/05/09 03:12:46;;;;;;;1.90;1.47;;;8.20;99.90;;;;;;2064789;28;20185;-69
2021/05/09 03:13:47;;;;;;;1.40;1.30;;;8.20;99.90;;;;;;2064732;28;20665;-69
2021/05/09 03:14:48;;;;;;;2.03;1.50;;;8.20;99.90;;;;;;2064729;28;20170;-69
2021/05/09 03:15:49;;;;;;;2.07;1.40;;;8.20;99.90;;;;;;2064718;28;20537;-69
2021/05/09 03:16:49;;;;;;;1.87;1.60;;;8.20;99.90;;;;;;2064935;28;20210;-69
2021/05/09 03:17:50;;;;;;;3.70;1.70;;;8.20;99.90;;;;;;2064762;28;20171;-69
2021/05/09 03:18:51;;;;;;;1.67;1.50;;;8.10;99.90;;;;;;2064924;28;20793;-69
2021/05/09 03:19:52;;;;;;;1.77;1.30;;;8.10;99.90;;;;;;2064744;28;20186;-69
2021/05/09 03:20:53;;;;;;;2.77;1.60;;;8.10;99.90;;;;;;2064786;28;20205;-69
2021/05/09 03:21:53;;;;;;;2.13;1.33;;;8.10;99.90;;;;;;2063879;28;20174;-69
2021/05/09 03:22:55;;;;;;;1.43;1.33;;;8.10;99.90;;;;;;2064024;28;20413;-69
2021/05/09 03:23:56;;;;;;;2.42;1.60;;;8.10;99.90;;;;;;2064817;28;20186;-69
2021/05/09 03:24:57;;;;;;;2.37;1.40;;;8.20;99.90;;;;;;2064761;28;20183;-69
2021/05/09 03:25:57;;;;;;;2.27;1.40;;;8.10;99.90;;;;;;2064602;28;20179;-69
2021/05/09 03:26:58;;;;;;;2.20;1.40;;;8.20;99.90;;;;;;2064582;28;20527;-70
2021/05/09 03:27:59;;;;;;;1.57;1.37;;;8.20;99.90;;;;;;2064766;28;20178;-69
2021/05/09 03:29:00;;;;;;;2.60;1.70;;;8.20;99.90;;;;;;2064517;28;20707;-69
2021/05/09 03:30:01;;;;;;;1.80;1.40;;;8.20;99.90;;;;;;2064723;28;20182;-69
2021/05/09 03:31:01;;;;;;;2.73;1.70;;;8.20;99.90;;;;;;2064549;28;20224;-70
2021/05/09 03:32:02;;;;;;;1.73;1.50;;;8.20;99.90;;;;;;2064492;28;20660;-69
2021/05/09 03:33:03;;;;;;;1.97;1.60;;;8.20;99.90;;;;;;2064748;28;20190;-69
2021/05/09 03:34:04;;;;;;;2.13;1.40;;;8.20;99.90;;;;;;2064801;28;20189;-70
2021/05/09 03:35:10;;;;;;;1.57;1.40;;;8.20;99.90;;;;;;2064662;28;20260;-69
2021/05/09 03:36:10;;;;;;;1.73;1.50;;;8.40;99.90;;;;;;2063990;28;20696;-68
2021/05/09 03:37:12;;;;;;;1.50;1.30;;;8.50;99.90;;;;;;2064028;28;20316;-69
2021/05/09 03:38:12;;;;;;;2.22;1.23;;;8.50;99.90;;;;;;2064709;28;20184;-69
2021/05/09 03:39:13;;;;;;;1.83;1.50;;;8.50;99.90;;;;;;2064605;28;20712;-69
2021/05/09 03:40:15;;;;;;;1.50;1.40;;;8.50;99.90;;;;;;2064715;28;20182;-70
2021/05/09 03:41:16;;;;;;;3.67;1.65;;;8.50;99.90;;;;;;2064370;28;20182;-68
2021/05/09 03:42:17;;;;;;;1.83;1.40;;;8.50;99.90;;;;;;2064540;28;20215;-69
2021/05/09 03:43:17;;;;;;;2.33;1.53;;;8.50;99.90;;;;;;2064603;28;20648;-69
2021/05/09 03:44:18;;;;;;;1.43;1.33;;;8.50;99.90;;;;;;2064732;28;20182;-69
2021/05/09 03:45:19;;;;;;;2.43;1.40;;;8.50;99.90;;;;;;2064717;28;20190;-69
2021/05/09 03:46:20;;;;;;;2.05;1.55;;;8.40;99.90;;;;;;2064610;28;20265;-70
2021/05/09 03:47:25;;;;;;;2.17;1.53;;;8.40;99.90;;;;;;2066004;28;20186;-69
2021/05/09 03:48:26;;;;;;;1.35;1.25;;;8.40;99.90;;;;;;2064872;28;20616;-69
2021/05/09 03:49:27;;;;;;;2.67;1.80;;;8.30;99.90;;;;;;2064719;28;20194;-69
2021/05/09 03:50:27;;;;;;;2.00;1.60;;;8.30;99.90;;;;;;2064991;28;20214;-68
2021/05/09 03:51:28;;;;;;;3.30;1.70;;;8.30;99.90;;;;;;2064534;28;20188;-68
2021/05/09 03:52:29;;;;;;;1.50;1.40;;;8.30;99.90;;;;;;2064689;28;20186;-69
2021/05/09 03:53:30;;;;;;;1.73;1.50;;;8.30;99.90;;;;;;2064675;28;20192;-68
2021/05/09 03:54:31;;;;;;;2.75;1.30;;;8.30;99.90;;;;;;2064186;28;20191;-69
2021/05/09 03:55:31;;;;;;;1.73;1.50;;;8.20;99.90;;;;;;2064126;28;20690;-69
2021/05/09 03:56:32;;;;;;;2.57;1.20;;;8.30;99.90;;;;;;2064743;28;20190;-69
2021/05/09 03:57:33;;;;;;;1.77;1.40;;;8.20;99.90;;;;;;2064585;28;20206;-69
2021/05/09 03:58:33;;;;;;;3.43;1.43;;;8.20;99.90;;;;;;2065211;28;20801;-68
2021/05/09 03:59:34;;;;;;;1.80;1.57;;;8.20;99.90;;;;;;2065684;28;20186;-69
2021/05/09 04:00:35;;;;;;;2.50;1.67;;;8.20;99.90;;;;;;2066319;28;20261;-68
2021/05/09 04:01:35;;;;;;;1.70;1.50;;;8.10;99.90;;;;;;2065921;28;20724;-68
2021/05/09 04:02:36;;;;;;;1.73;1.40;;;8.10;99.90;;;;;;2066181;28;20305;-70
2021/05/09 04:03:37;;;;;;;1.73;1.63;;;8.10;99.90;;;;;;2066076;28;20206;-68
2021/05/09 04:04:37;;;;;;;2.50;1.50;;;8.10;99.90;;;;;;2066372;28;20221;-68
2021/05/09 04:05:38;;;;;;;2.40;1.50;;;8.10;99.90;;;;;;2066336;28;20603;-69
2021/05/09 04:06:39;;;;;;;2.07;1.70;;;8.00;99.90;;;;;;2066085;28;20186;-69
2021/05/09 04:07:40;;;;;;;1.47;1.37;;;8.00;99.90;;;;;;2066316;28;20179;-68
2021/05/09 04:08:41;;;;;;;1.73;1.50;;;7.90;99.90;;;;;;2065933;28;20566;-68
2021/05/09 04:09:41;;;;;;;2.50;1.50;;;7.90;99.90;;;;;;2066297;28;20201;-68
2021/05/09 04:10:42;;;;;;;5.13;1.60;;;7.90;99.90;;;;;;2066097;28;20661;-69
2021/05/09 04:11:43;;;;;;;2.57;1.47;;;7.80;99.90;;;;;;2066202;28;20182;-68
2021/05/09 04:12:43;;;;;;;1.53;1.43;;;7.80;99.90;;;;;;2066043;28;20638;-68
2021/05/09 04:13:49;;;;;;;2.43;1.30;;;7.80;99.90;;;;;;2066202;28;20187;-69
2021/05/09 04:14:50;;;;;;;1.80;1.50;;;7.80;99.90;;;;;;2065323;28;20174;-68
2021/05/09 04:15:51;;;;;;;1.63;1.53;;;7.80;99.90;;;;;;2065530;28;20240;-69
2021/05/09 04:16:52;;;;;;;2.78;1.60;;;7.80;99.90;;;;;;2066203;28;20262;-68
2021/05/09 04:17:52;;;;;;;2.67;1.40;;;7.80;99.90;;;;;;2066229;28;20290;-68
2021/05/09 04:18:53;;;;;;;1.70;1.40;;;7.80;99.90;;;;;;2065913;28;20277;-69
2021/05/09 04:19:54;;;;;;;2.97;1.43;;;7.90;99.90;;;;;;2065951;28;20173;-68
2021/05/09 04:20:54;;;;;;;2.03;1.60;;;7.80;99.90;;;;;;2065420;28;20178;-68
2021/05/09 04:21:55;;;;;;;2.70;1.50;;;7.90;99.90;;;;;;2065151;28;20201;-68
2021/05/09 04:23:18;;;;;;;3.47;1.60;;;7.90;99.90;;;;;;2065317;28;20233;-69
2021/05/09 04:24:18;;;;;;;4.47;1.55;;;7.80;99.90;;;;;;2065789;28;20645;-69
2021/05/09 04:25:19;;;;;;;1.50;1.30;;;7.80;99.90;;;;;;2065965;28;20187;-69
2021/05/09 04:26:20;;;;;;;2.00;1.60;;;7.90;99.90;;;;;;2066125;28;20183;-68
2021/05/09 04:27:21;;;;;;;4.20;1.70;;;7.90;99.90;;;;;;2065463;28;20182;-68
2021/05/09 04:28:21;;;;;;;2.87;1.50;;;7.90;99.90;;;;;;2065417;28;20178;-68
2021/05/09 04:29:22;;;;;;;4.43;1.30;;;7.90;99.90;;;;;;2066050;28;20183;-69
2021/05/09 04:30:23;;;;;;;2.00;1.40;;;7.90;99.90;;;;;;2065982;28;20181;-68
2021/05/09 04:31:24;;;;;;;1.70;1.30;;;8.00;99.90;;;;;;2065790;28;20186;-69
2021/05/09 04:32:25;;;;;;;2.63;1.30;;;8.00;99.90;;;;;;2066163;28;20210;-68
2021/05/09 04:33:27;;;;;;;2.93;1.40;;;8.00;99.90;;;;;;2066032;28;20194;-68
2021/05/09 04:34:27;;;;;;;1.40;1.30;;;8.20;99.90;;;;;;2065449;28;20178;-69
2021/05/09 04:35:28;;;;;;;1.73;1.13;;;8.20;99.90;;;;;;2065218;28;20186;-70
2021/05/09 04:36:29;;;;;;;1.40;1.30;;;8.20;99.90;;;;;;2066208;28;20236;-69
2021/05/09 04:37:30;;;;;;;2.37;1.17;;;8.30;99.90;;;;;;2065928;28;20214;-68
2021/05/09 04:38:31;;;;;;;3.23;1.20;;;8.30;99.90;;;;;;2065984;28;20290;-69
2021/05/09 04:39:31;;;;;;;2.00;1.40;;;8.30;99.90;;;;;;2065950;28;20210;-70
2021/05/09 04:40:32;;;;;;;1.97;1.50;;;8.40;99.90;;;;;;2065957;28;20266;-69
2021/05/09 04:41:33;;;;;;;1.97;1.40;;;8.40;99.90;;;;;;2065608;28;20654;-69
2021/05/09 04:42:33;;;;;;;1.80;1.30;;;8.50;99.90;;;;;;2065941;28;20244;-69
2021/05/09 04:43:35;;;;;;;1.93;1.23;;;8.50;99.90;;;;;;2065875;28;20277;-69
2021/05/09 04:44:36;;;;;;;2.03;1.13;;;8.60;99.90;;;;;;2066101;28;20187;-69
2021/05/09 04:45:38;;;;;;;1.67;1.20;;;8.60;99.90;;;;;;2065833;28;20270;-68
2021/05/09 04:46:38;;;;;;;1.70;1.40;;;8.70;99.90;;;;;;2065020;28;20205;-68
2021/05/09 04:47:40;;;;;;;1.60;1.30;;;8.70;99.90;;;;;;2065137;28;20170;-69
2021/05/09 04:48:41;;;;;;;2.20;1.38;;;8.70;99.90;;;;;;2065577;28;20612;-69
2021/05/09 04:49:41;;;;;;;1.83;1.53;;;8.80;99.90;;;;;;2065174;28;20191;-68
2021/05/09 04:50:43;;;;;;;1.93;1.20;;;8.70;99.90;;;;;;2065210;28;20182;-69
2021/05/09 04:51:43;;;;;;;1.92;1.13;;;8.70;99.90;;;;;;2064708;28;20174;-68
2021/05/09 04:52:44;;;;;;;2.30;1.60;;;8.70;99.90;;;;;;2065207;28;20178;-69
2021/05/09 04:53:45;;;;;;;1.60;1.47;;;8.80;99.90;;;;;;2065680;28;20178;-68
2021/05/09 04:54:45;;;;;;;2.67;1.40;;;8.80;99.90;;;;;;2065891;28;20183;-69
2021/05/09 04:55:46;;;;;;;1.97;1.20;;;8.80;99.90;;;;;;2065669;28;20708;-69
2021/05/09 04:56:47;;;;;;;1.57;1.30;;;8.90;99.90;;;;;;2065737;28;20186;-68
2021/05/09 04:57:47;;;;;;;3.30;1.37;;;8.90;99.90;;;;;;2065564;28;20167;-69
2021/05/09 04:58:48;;;;;;;2.07;1.40;;;8.90;99.90;;;;;;2065722;28;20198;-69
2021/05/09 04:59:49;;;;;;;1.60;1.50;;;8.90;99.90;;;;;;2065849;28;20183;-69
2021/05/09 05:01:01;;;;;;;1.97;1.17;;;8.90;99.90;;;;;;2065657;28;20800;-68
2021/05/09 05:02:01;;;;;;;1.92;1.50;;;9.00;99.90;;;;;;2065420;28;20183;-68
2021/05/09 05:03:02;;;;;;;1.40;1.30;;;9.00;99.90;;;;;;2065576;28;20552;-70
2021/05/09 05:04:04;;;;;;;1.85;1.30;;;9.00;99.90;;;;;;2065054;28;20183;-69
2021/05/09 05:05:05;;;;;;;1.80;1.40;;;9.00;99.90;;;;;;2065115;28;20189;-69
2021/05/09 05:06:06;;;;;;;2.75;1.50;;;8.90;99.90;;;;;;2065659;28;20214;-68
2021/05/09 05:07:07;;;;;;;1.30;1.20;;;8.90;99.90;;;;;;2065665;28;20189;-68
2021/05/09 05:08:08;;;;;;;1.57;1.20;;;9.00;99.90;;;;;;2065651;28;20299;-68
2021/05/09 05:09:08;;;;;;;1.60;1.47;;;9.00;99.90;;;;;;2065530;28;20305;-70
2021/05/09 05:10:09;;;;;;;1.90;1.40;;;9.00;99.90;;;;;;2065707;28;20649;-69
2021/05/09 05:11:10;;;;;;;1.77;1.58;;;9.00;99.90;;;;;;2065645;28;20244;-68
2021/05/09 05:12:11;;;;;;;1.60;1.40;;;9.00;99.90;;;;;;2064934;28;20598;-69
2021/05/09 05:13:23;;;;;;;2.17;1.47;;;9.00;99.90;;;;;;2064877;28;20187;-68
2021/05/09 05:14:24;;;;;;;2.45;1.23;;;9.00;99.90;;;;;;2065147;28;20940;-69
2021/05/09 05:15:24;;;;;;;2.17;1.50;;;9.00;99.90;;;;;;2065069;28;20191;-70
2021/05/09 05:16:25;;;;;;;1.63;1.30;;;9.00;99.90;;;;;;2065772;28;20187;-69
2021/05/09 05:17:26;;;;;;;1.70;1.50;;;9.10;99.90;;;;;;2065701;28;20655;-68
2021/05/09 05:18:27;;;;;;;1.40;1.30;;;9.10;99.90;;;;;;2065676;28;20641;-69
2021/05/09 05:19:27;;;;;;;2.88;1.67;;;9.10;99.90;;;;;;2065592;28;20269;-68
2021/05/09 05:20:28;;;;;;;1.43;1.30;;;9.10;99.90;;;;;;2065778;28;20187;-68
2021/05/09 05:21:29;;;;;;;2.47;1.40;;;9.10;99.90;;;;;;2065576;28;20236;-68
2021/05/09 05:22:29;;;;;;;2.60;1.40;;;9.20;99.90;;;;;;2065651;28;20230;-67
2021/05/09 05:23:31;;;;;;;1.83;1.40;;;9.20;99.90;;;;;;2065598;28;20204;-68